Eighty Four, Pennsylvania
Current Conditions -  °F | °C
As of 5:35 PM on Friday 24 Oct 2014 (Local Time) from KAFJ Reporting Station
Clear Clear  
Wind Chill: 15°   Ceiling: Unl
Heat Index: 15°   Visibility: 10mi
Dew Point:   Wind: 6mph
Humidity: 45%   Direction: 270°W
Pressure: 30.02"   Gusts: NA
Location:  40.18°N, 80.13°W
Report Text: KAFJ 242135Z AUTO 27005KT 10SM CLR 15/03 A3002 RMK AO1
Loading
Personal Weather Stations






























Interactive Weather Map
Tropical Storm Tracking
New forecast layout! Learn more

10-Day Weather Forecast

Advertisements
Track Severe Weather on mobile